createdAt,value
2023-02-09T00:00:24.079Z,1022.89
2023-02-09T00:01:22.943Z,1022.82
2023-02-09T00:02:22.995Z,1022.82
2023-02-09T00:03:22.930Z,1022.88
2023-02-09T00:04:23.890Z,1022.80
2023-02-09T00:05:23.905Z,1022.85
2023-02-09T00:06:22.891Z,1022.81
2023-02-09T00:07:22.894Z,1022.78
2023-02-09T00:08:22.838Z,1022.75
2023-02-09T00:09:22.850Z,1022.79
2023-02-09T00:10:23.822Z,1022.79
2023-02-09T00:11:22.822Z,1022.77
2023-02-09T00:12:22.839Z,1022.71
2023-02-09T00:13:22.820Z,1022.76
2023-02-09T00:14:23.862Z,1022.73
2023-02-09T00:15:22.792Z,1022.68
2023-02-09T00:16:22.769Z,1022.69
2023-02-09T00:17:22.766Z,1022.66
2023-02-09T00:18:22.741Z,1022.62
2023-02-09T00:19:23.741Z,1022.65
2023-02-09T00:20:22.776Z,1022.73
2023-02-09T00:21:22.704Z,1022.68
2023-02-09T00:22:23.688Z,1022.68
2023-02-09T00:23:22.675Z,1022.77
2023-02-09T00:24:23.705Z,1022.71
2023-02-09T00:25:22.696Z,1022.68
2023-02-09T00:26:22.647Z,1022.72
2023-02-09T00:27:22.652Z,1022.66
2023-02-09T00:28:22.728Z,1022.70
2023-02-09T00:29:22.656Z,1022.76
2023-02-09T00:30:22.632Z,1022.73
2023-02-09T00:31:22.701Z,1022.69
2023-02-09T00:32:22.595Z,1022.68
2023-02-09T00:33:22.594Z,1022.65
2023-02-09T00:34:22.563Z,1022.64
2023-02-09T00:35:22.578Z,1022.58
2023-02-09T00:36:23.542Z,1022.64
2023-02-09T00:37:23.536Z,1022.55
2023-02-09T00:38:22.574Z,1022.60
2023-02-09T00:39:22.546Z,1022.58
2023-02-09T00:40:22.507Z,1022.53
2023-02-09T00:41:22.510Z,1022.49
2023-02-09T00:42:23.498Z,1022.56
2023-02-09T00:43:23.459Z,1022.54
2023-02-09T00:44:22.464Z,1022.58
2023-02-09T00:45:23.476Z,1022.54
2023-02-09T00:46:22.506Z,1022.50
2023-02-09T00:47:22.423Z,1022.54
2023-02-09T00:48:22.444Z,1022.47
2023-02-09T00:49:22.419Z,1022.51
2023-02-09T00:50:22.403Z,1022.45
2023-02-09T00:51:22.392Z,1022.47
2023-02-09T00:52:22.438Z,1022.51
2023-02-09T00:53:22.378Z,1022.51
2023-02-09T00:54:22.366Z,1022.52
2023-02-09T00:55:22.330Z,1022.51
2023-02-09T00:56:22.322Z,1022.48
2023-02-09T00:57:22.412Z,1022.49
2023-02-09T00:58:22.326Z,1022.54
2023-02-09T00:59:22.298Z,1022.45
2023-02-09T01:00:22.290Z,1022.47
2023-02-09T01:01:22.409Z,1022.47
2023-02-09T01:02:22.274Z,1022.54
2023-02-09T01:03:22.316Z,1022.57
2023-02-09T01:04:22.297Z,1022.57
2023-02-09T01:05:23.257Z,1022.51
2023-02-09T01:06:22.232Z,1022.49
2023-02-09T01:07:22.258Z,1022.53
2023-02-09T01:08:22.241Z,1022.47
2023-02-09T01:09:22.218Z,1022.46
2023-02-09T01:10:22.181Z,1022.46
2023-02-09T01:11:22.172Z,1022.53
2023-02-09T01:12:22.186Z,1022.36
2023-02-09T01:13:22.156Z,1022.48
2023-02-09T01:14:22.164Z,1022.50
2023-02-09T01:15:22.124Z,1022.44
2023-02-09T01:16:23.253Z,1022.42
2023-02-09T01:17:23.125Z,1022.40
2023-02-09T01:18:23.104Z,1022.44
2023-02-09T01:19:22.103Z,1022.48
2023-02-09T01:20:23.096Z,1022.47
2023-02-09T01:21:22.058Z,1022.42
2023-02-09T01:22:23.066Z,1022.30
2023-02-09T01:23:22.071Z,1022.45
2023-02-09T01:24:23.033Z,1022.36
2023-02-09T01:25:22.022Z,1022.35
2023-02-09T01:26:22.024Z,1022.40
2023-02-09T01:27:22.023Z,1022.33
2023-02-09T01:28:23.031Z,1022.24
2023-02-09T01:29:22.020Z,1022.26
2023-02-09T01:30:21.972Z,1022.27
2023-02-09T01:31:23.129Z,1022.25
2023-02-09T01:32:22.984Z,1022.26
2023-02-09T01:33:21.918Z,1022.31
2023-02-09T01:34:21.977Z,1022.28
2023-02-09T01:35:21.959Z,1022.25
2023-02-09T01:36:22.906Z,1022.19
2023-02-09T01:37:21.914Z,1022.17
2023-02-09T01:38:21.865Z,1022.17
2023-02-09T01:39:21.876Z,1022.18
2023-02-09T01:40:21.897Z,1022.08
2023-02-09T01:41:22.876Z,1022.06
2023-02-09T01:42:22.897Z,1022.06
2023-02-09T01:43:21.835Z,1022.16
2023-02-09T01:44:22.839Z,1022.14
2023-02-09T01:45:21.805Z,1022.18
2023-02-09T01:46:21.910Z,1022.15
2023-02-09T01:47:21.808Z,1022.07
2023-02-09T01:48:21.801Z,1022.10
2023-02-09T01:49:21.829Z,1022.08
2023-02-09T01:50:21.804Z,1022.02
2023-02-09T01:51:22.730Z,1022.06
2023-02-09T01:52:21.737Z,1022.12
2023-02-09T01:53:21.740Z,1022.14
2023-02-09T01:54:21.752Z,1022.09
2023-02-09T01:55:21.692Z,1022.17
2023-02-09T01:56:21.702Z,1022.13
2023-02-09T01:57:21.695Z,1022.18
2023-02-09T01:58:22.693Z,1022.16
2023-02-09T01:59:21.707Z,1022.10
2023-02-09T02:00:22.648Z,1022.09
2023-02-09T02:01:21.692Z,1022.17
2023-02-09T02:02:21.662Z,1022.09
2023-02-09T02:03:21.639Z,1022.08
2023-02-09T02:04:21.606Z,1022.11
2023-02-09T02:05:21.648Z,1022.11
2023-02-09T02:06:21.596Z,1022.10
2023-02-09T02:07:21.636Z,1022.12
2023-02-09T02:08:21.558Z,1022.11
2023-02-09T02:09:21.559Z,1022.08
2023-02-09T02:10:21.529Z,1022.12
2023-02-09T02:11:21.537Z,1022.19
2023-02-09T02:12:21.553Z,1022.11
2023-02-09T02:13:21.518Z,1022.11
2023-02-09T02:14:22.491Z,1022.13
2023-02-09T02:15:21.488Z,1022.11
2023-02-09T02:16:21.475Z,1022.10
2023-02-09T02:17:21.469Z,1022.11
2023-02-09T02:18:21.484Z,1022.12
2023-02-09T02:19:21.441Z,1022.11
2023-02-09T02:20:21.430Z,1022.05
2023-02-09T02:21:21.414Z,1022.11
2023-02-09T02:22:21.423Z,1022.14
2023-02-09T02:23:21.424Z,1022.07
2023-02-09T02:24:21.397Z,1022.05
2023-02-09T02:25:21.385Z,1022.11
2023-02-09T02:26:21.366Z,1022.11
2023-02-09T02:27:21.375Z,1022.11
2023-02-09T02:28:21.418Z,1022.08
2023-02-09T02:29:22.376Z,1022.04
2023-02-09T02:30:21.339Z,1022.05
2023-02-09T02:31:21.455Z,1022.10
2023-02-09T02:32:21.290Z,1022.05
2023-02-09T02:33:21.333Z,1022.05
2023-02-09T02:34:21.310Z,1022.01
2023-02-09T02:35:21.391Z,1022.09
2023-02-09T02:36:21.251Z,1022.14
2023-02-09T02:37:21.248Z,1022.00
2023-02-09T02:38:21.241Z,1021.97
2023-02-09T02:39:21.221Z,1022.01
2023-02-09T02:40:21.214Z,1021.96
2023-02-09T02:41:21.221Z,1021.97
2023-02-09T02:42:21.226Z,1021.88
2023-02-09T02:43:21.183Z,1021.85
2023-02-09T02:44:22.171Z,1021.90
2023-02-09T02:45:21.178Z,1021.85
2023-02-09T02:46:21.292Z,1021.88
2023-02-09T02:47:21.146Z,1021.80
2023-02-09T02:48:21.154Z,1021.83
2023-02-09T02:49:21.108Z,1021.81
2023-02-09T02:50:21.153Z,1021.78
2023-02-09T02:51:22.135Z,1021.77
2023-02-09T02:52:21.089Z,1021.77
2023-02-09T02:53:21.089Z,1021.78
2023-02-09T02:54:21.096Z,1021.71
2023-02-09T02:55:21.062Z,1021.74
2023-02-09T02:56:21.107Z,1021.74
2023-02-09T02:57:21.040Z,1021.70
2023-02-09T02:58:21.069Z,1021.78
2023-02-09T02:59:21.033Z,1021.72
2023-02-09T03:00:21.008Z,1021.70
2023-02-09T03:01:21.073Z,1021.72
2023-02-09T03:02:21.022Z,1021.70
2023-02-09T03:03:20.977Z,1021.66
2023-02-09T03:04:21.026Z,1021.55
2023-02-09T03:05:21.032Z,1021.64
2023-02-09T03:06:20.948Z,1021.61
2023-02-09T03:07:20.964Z,1021.67
2023-02-09T03:08:21.929Z,1021.69
2023-02-09T03:09:21.938Z,1021.67
2023-02-09T03:10:20.925Z,1021.67
2023-02-09T03:11:20.878Z,1021.66
2023-02-09T03:12:20.907Z,1021.66
2023-02-09T03:13:20.921Z,1021.60
2023-02-09T03:14:20.866Z,1021.69
2023-02-09T03:15:20.890Z,1021.62
2023-02-09T03:16:20.878Z,1021.67
2023-02-09T03:17:20.848Z,1021.71
2023-02-09T03:18:20.852Z,1021.72
2023-02-09T03:19:21.820Z,1021.71
2023-02-09T03:20:20.810Z,1021.69
2023-02-09T03:21:20.791Z,1021.70
2023-02-09T03:22:21.758Z,1021.63
2023-02-09T03:23:20.815Z,1021.62
2023-02-09T03:24:20.797Z,1021.66
2023-02-09T03:25:21.746Z,1021.71
2023-02-09T03:26:20.754Z,1021.69
2023-02-09T03:27:20.761Z,1021.68
2023-02-09T03:28:21.753Z,1021.59
2023-02-09T03:29:20.740Z,1021.59
2023-02-09T03:30:21.765Z,1021.59
2023-02-09T03:31:20.839Z,1021.57
2023-02-09T03:32:20.691Z,1021.58
2023-02-09T03:33:20.678Z,1021.54
2023-02-09T03:34:20.641Z,1021.55
2023-02-09T03:35:20.647Z,1021.52
2023-02-09T03:36:20.635Z,1021.56
2023-02-09T03:37:20.681Z,1021.59
2023-02-09T03:38:20.613Z,1021.59
2023-02-09T03:39:20.605Z,1021.65
2023-02-09T03:40:20.609Z,1021.58
2023-02-09T03:41:21.603Z,1021.58
2023-02-09T03:42:21.572Z,1021.62
2023-02-09T03:43:20.572Z,1021.50
2023-02-09T03:44:21.544Z,1021.55
2023-02-09T03:45:21.554Z,1021.54
2023-02-09T03:46:20.554Z,1021.55
2023-02-09T03:47:20.503Z,1021.52
2023-02-09T03:48:21.516Z,1021.56
2023-02-09T03:49:20.520Z,1021.53
2023-02-09T03:50:20.472Z,1021.58
2023-02-09T03:51:20.465Z,1021.51
2023-02-09T03:52:20.462Z,1021.53
2023-02-09T03:53:20.439Z,1021.52
2023-02-09T03:54:20.488Z,1021.53
2023-02-09T03:55:20.421Z,1021.49
2023-02-09T03:56:20.415Z,1021.51
2023-02-09T03:57:20.401Z,1021.48
2023-02-09T03:58:20.462Z,1021.45
2023-02-09T03:59:20.373Z,1021.46
2023-02-09T04:00:20.361Z,1021.43
2023-02-09T04:01:20.378Z,1021.51
2023-02-09T04:02:20.396Z,1021.44
2023-02-09T04:03:20.333Z,1021.43
2023-02-09T04:04:20.363Z,1021.47
2023-02-09T04:05:20.348Z,1021.41
2023-02-09T04:06:20.422Z,1021.41
2023-02-09T04:07:20.288Z,1021.44
2023-02-09T04:08:20.276Z,1021.41
2023-02-09T04:09:21.264Z,1021.41
2023-02-09T04:10:21.262Z,1021.32
2023-02-09T04:11:22.145Z,1021.32
2023-02-09T04:12:20.293Z,1021.34
2023-02-09T04:13:20.218Z,1021.33
2023-02-09T04:14:20.232Z,1021.25
2023-02-09T04:15:20.212Z,1021.31
2023-02-09T04:16:20.260Z,1021.23
2023-02-09T04:17:20.204Z,1021.30
2023-02-09T04:18:20.213Z,1021.30
2023-02-09T04:19:20.188Z,1021.25
2023-02-09T04:20:20.155Z,1021.25
2023-02-09T04:21:21.134Z,1021.23
2023-02-09T04:22:20.148Z,1021.25
2023-02-09T04:23:21.167Z,1021.27
2023-02-09T04:24:20.107Z,1021.17
2023-02-09T04:25:20.112Z,1021.13
2023-02-09T04:26:20.090Z,1021.22
2023-02-09T04:27:20.110Z,1021.15
2023-02-09T04:28:21.123Z,1021.16
2023-02-09T04:29:20.094Z,1021.18
2023-02-09T04:30:20.058Z,1021.14
2023-02-09T04:31:20.121Z,1021.24
2023-02-09T04:32:20.010Z,1021.26
2023-02-09T04:33:20.013Z,1021.23
2023-02-09T04:34:20.034Z,1021.18
2023-02-09T04:35:19.996Z,1021.16
2023-02-09T04:36:20.014Z,1021.21
2023-02-09T04:37:20.962Z,1021.21
2023-02-09T04:38:20.989Z,1021.22
2023-02-09T04:39:20.944Z,1021.12
2023-02-09T04:40:20.987Z,1021.12
2023-02-09T04:41:19.977Z,1021.10
2023-02-09T04:42:19.975Z,1021.11
2023-02-09T04:43:20.905Z,1021.13
2023-02-09T04:44:20.910Z,1021.07
2023-02-09T04:45:19.899Z,1021.13
2023-02-09T04:46:19.897Z,1021.15
2023-02-09T04:47:19.873Z,1021.15
2023-02-09T04:48:19.910Z,1021.11
2023-02-09T04:49:20.838Z,1021.16
2023-02-09T04:50:19.822Z,1021.10
2023-02-09T04:51:19.847Z,1021.14
2023-02-09T04:52:19.802Z,1021.15
2023-02-09T04:53:19.828Z,1021.08
2023-02-09T04:54:19.801Z,1021.11
2023-02-09T04:55:19.792Z,1021.07
2023-02-09T04:56:19.804Z,1021.05
2023-02-09T04:57:19.803Z,1021.07
2023-02-09T04:58:19.791Z,1021.05
2023-02-09T04:59:19.739Z,1021.08
2023-02-09T05:00:20.737Z,1021.00
2023-02-09T05:01:19.870Z,1021.09
2023-02-09T05:02:19.721Z,1021.06
2023-02-09T05:03:19.764Z,1020.99
2023-02-09T05:04:19.721Z,1021.01
2023-02-09T05:05:20.687Z,1021.01
2023-02-09T05:06:19.646Z,1021.07
2023-02-09T05:07:19.643Z,1021.01
2023-02-09T05:08:19.659Z,1021.07
2023-02-09T05:09:19.657Z,1021.09
2023-02-09T05:10:19.652Z,1021.09
2023-02-09T05:11:19.608Z,1021.05
2023-02-09T05:12:19.644Z,1021.06
2023-02-09T05:13:19.571Z,1021.03
2023-02-09T05:14:19.672Z,1021.03
2023-02-09T05:15:20.566Z,1021.01
2023-02-09T05:16:19.633Z,1021.11
2023-02-09T05:17:19.534Z,1021.06
2023-02-09T05:18:19.562Z,1021.02
2023-02-09T05:19:19.570Z,1021.03
2023-02-09T05:20:19.545Z,1021.05
2023-02-09T05:21:20.488Z,1021.06
2023-02-09T05:22:19.492Z,1020.98
2023-02-09T05:23:19.524Z,1020.98
2023-02-09T05:24:19.524Z,1020.98
2023-02-09T05:25:20.473Z,1020.97
2023-02-09T05:26:19.465Z,1020.94
2023-02-09T05:27:19.467Z,1020.97
2023-02-09T05:28:19.478Z,1021.02
2023-02-09T05:29:21.333Z,1021.01
2023-02-09T05:30:19.461Z,1020.99
2023-02-09T05:31:19.563Z,1021.00
2023-02-09T05:32:19.453Z,1021.01
2023-02-09T05:33:20.363Z,1021.02
2023-02-09T05:34:19.381Z,1021.04
2023-02-09T05:35:19.402Z,1021.02
2023-02-09T05:36:20.346Z,1021.02
2023-02-09T05:37:19.344Z,1020.94
2023-02-09T05:38:20.303Z,1021.00
2023-02-09T05:39:19.340Z,1020.94
2023-02-09T05:40:19.365Z,1020.99
2023-02-09T05:41:19.290Z,1020.96
2023-02-09T05:42:20.275Z,1020.94
2023-02-09T05:43:19.326Z,1020.96
2023-02-09T05:44:19.272Z,1020.93
2023-02-09T05:45:19.260Z,1020.92
2023-02-09T05:46:20.308Z,1020.94
2023-02-09T05:47:19.214Z,1020.95
2023-02-09T05:48:19.207Z,1020.98
2023-02-09T05:49:20.233Z,1020.99
2023-02-09T05:50:19.208Z,1021.00
2023-02-09T05:51:19.198Z,1020.99
2023-02-09T05:52:19.202Z,1020.98
2023-02-09T05:53:19.165Z,1021.00
2023-02-09T05:54:19.184Z,1020.97
2023-02-09T05:55:19.137Z,1020.96
2023-02-09T05:56:20.127Z,1020.94
2023-02-09T05:57:19.134Z,1020.90
2023-02-09T05:58:19.101Z,1020.97
2023-02-09T05:59:19.158Z,1021.00
2023-02-09T06:00:19.083Z,1020.91
2023-02-09T06:01:19.059Z,1020.94
2023-02-09T06:02:19.085Z,1020.94
2023-02-09T06:03:19.090Z,1020.96
2023-02-09T06:04:19.028Z,1020.94
2023-02-09T06:05:20.062Z,1020.97
2023-02-09T06:06:20.180Z,1020.99
2023-02-09T06:07:18.999Z,1020.97
2023-02-09T06:08:19.017Z,1020.95
2023-02-09T06:09:19.003Z,1020.91
2023-02-09T06:10:19.025Z,1020.94
2023-02-09T06:11:18.956Z,1020.94
2023-02-09T06:12:18.971Z,1020.94
2023-02-09T06:13:18.958Z,1020.94
2023-02-09T06:14:19.003Z,1021.01
2023-02-09T06:15:26.573Z,1020.97
2023-02-09T06:16:18.906Z,1020.97
2023-02-09T06:17:18.893Z,1021.01
2023-02-09T06:18:19.909Z,1020.98
2023-02-09T06:19:18.876Z,1021.04
2023-02-09T06:20:18.861Z,1020.98
2023-02-09T06:21:19.892Z,1021.03
2023-02-09T06:22:18.848Z,1020.97
2023-02-09T06:23:18.863Z,1021.00
2023-02-09T06:24:19.864Z,1021.01
2023-02-09T06:25:18.802Z,1020.94
2023-02-09T06:26:18.821Z,1020.92
2023-02-09T06:27:18.812Z,1020.95
2023-02-09T06:28:18.805Z,1020.97
2023-02-09T06:29:19.773Z,1021.02
2023-02-09T06:30:18.807Z,1021.08
2023-02-09T06:31:18.809Z,1021.01
2023-02-09T06:32:18.828Z,1021.02
2023-02-09T06:33:19.726Z,1021.03
2023-02-09T06:34:18.732Z,1021.10
2023-02-09T06:35:18.714Z,1021.11
2023-02-09T06:36:18.727Z,1021.08
2023-02-09T06:37:18.726Z,1021.06
2023-02-09T06:38:18.709Z,1021.09
2023-02-09T06:39:18.648Z,1021.06
2023-02-09T06:40:18.656Z,1021.05
2023-02-09T06:41:18.681Z,1021.08
2023-02-09T06:42:18.668Z,1021.03
2023-02-09T06:43:19.652Z,1021.09
2023-02-09T06:44:19.597Z,1021.10
2023-02-09T06:45:18.638Z,1021.08
2023-02-09T06:46:18.823Z,1021.11
2023-02-09T06:47:18.588Z,1021.13
2023-02-09T06:48:19.589Z,1021.16
2023-02-09T06:49:18.562Z,1021.13
2023-02-09T06:50:18.556Z,1021.21
2023-02-09T06:51:18.538Z,1021.10
2023-02-09T06:52:18.570Z,1021.20
2023-02-09T06:53:18.539Z,1021.04
2023-02-09T06:54:18.525Z,1021.09
2023-02-09T06:55:18.490Z,1021.06
2023-02-09T06:56:18.505Z,1021.09
2023-02-09T06:57:18.536Z,1021.05
2023-02-09T06:58:18.467Z,1021.10
2023-02-09T06:59:19.448Z,1021.10
2023-02-09T07:00:18.483Z,1021.12
2023-02-09T07:01:18.493Z,1021.19
2023-02-09T07:02:18.473Z,1021.22
2023-02-09T07:03:18.447Z,1021.18
2023-02-09T07:04:18.473Z,1021.26
2023-02-09T07:05:18.409Z,1021.18
2023-02-09T07:06:18.407Z,1021.21
2023-02-09T07:07:18.367Z,1021.20
2023-02-09T07:08:18.368Z,1021.16
2023-02-09T07:09:18.418Z,1021.16
2023-02-09T07:10:18.380Z,1021.15
2023-02-09T07:11:18.326Z,1021.14
2023-02-09T07:12:18.298Z,1021.06
2023-02-09T07:13:18.320Z,1021.04
2023-02-09T07:14:18.311Z,1021.07
2023-02-09T07:15:19.302Z,1021.06
2023-02-09T07:16:18.368Z,1021.01
2023-02-09T07:17:18.292Z,1021.04
2023-02-09T07:18:19.253Z,1021.02
2023-02-09T07:19:18.282Z,1021.03
2023-02-09T07:20:18.251Z,1021.08
2023-02-09T07:21:18.256Z,1021.00
2023-02-09T07:22:18.224Z,1021.02
2023-02-09T07:23:18.210Z,1021.06
2023-02-09T07:24:18.186Z,1021.05
2023-02-09T07:25:18.203Z,1021.08
2023-02-09T07:26:18.178Z,1021.04
2023-02-09T07:27:18.195Z,1021.06
2023-02-09T07:28:18.222Z,1021.08
2023-02-09T07:29:18.141Z,1021.06
2023-02-09T07:30:19.118Z,1021.03
2023-02-09T07:31:18.217Z,1021.10
2023-02-09T07:32:18.147Z,1021.07
2023-02-09T07:33:19.095Z,1021.12
2023-02-09T07:34:19.115Z,1021.12
2023-02-09T07:35:18.199Z,1021.01
2023-02-09T07:36:18.051Z,1021.01
2023-02-09T07:37:18.067Z,1021.10
2023-02-09T07:38:18.042Z,1021.10
2023-02-09T07:39:18.020Z,1021.12
2023-02-09T07:40:18.021Z,1021.18
2023-02-09T07:41:18.038Z,1021.11
2023-02-09T07:42:18.022Z,1021.07
2023-02-09T07:43:18.003Z,1021.07
2023-02-09T07:44:17.992Z,1021.10
2023-02-09T07:45:17.953Z,1021.11
2023-02-09T07:46:18.051Z,1021.06
2023-02-09T07:47:17.920Z,1021.04
2023-02-09T07:48:17.950Z,1021.06
2023-02-09T07:49:17.956Z,1021.00
2023-02-09T07:50:20.140Z,1021.05
2023-02-09T07:51:17.905Z,1020.98
2023-02-09T07:52:17.909Z,1021.04
2023-02-09T07:53:17.887Z,1021.04
2023-02-09T07:54:17.862Z,1021.08
2023-02-09T07:55:17.853Z,1021.02
2023-02-09T07:56:17.863Z,1021.05
2023-02-09T07:57:17.817Z,1021.03
2023-02-09T07:58:17.857Z,1021.14
2023-02-09T07:59:17.856Z,1021.11
2023-02-09T08:00:17.803Z,1021.03
2023-02-09T08:01:17.897Z,1021.12
2023-02-09T08:02:18.778Z,1021.07
2023-02-09T08:03:17.748Z,1021.12
2023-02-09T08:04:17.744Z,1021.10
2023-02-09T08:05:17.785Z,1021.18
2023-02-09T08:06:19.223Z,1021.13
2023-02-09T08:07:17.716Z,1021.19
2023-02-09T08:08:17.696Z,1021.15
2023-02-09T08:09:17.682Z,1021.17
2023-02-09T08:10:17.752Z,1021.12
2023-02-09T08:11:17.698Z,1021.12
2023-02-09T08:12:17.749Z,1021.14
2023-02-09T08:13:18.686Z,1021.14
2023-02-09T08:14:17.676Z,1021.15
2023-02-09T08:15:17.631Z,1021.17
2023-02-09T08:16:17.686Z,1021.16
2023-02-09T08:17:18.628Z,1021.21
2023-02-09T08:18:18.625Z,1021.19
2023-02-09T08:19:17.610Z,1021.22
2023-02-09T08:20:17.611Z,1021.22
2023-02-09T08:21:17.573Z,1021.27
2023-02-09T08:22:17.586Z,1021.30
2023-02-09T08:23:17.555Z,1021.18
2023-02-09T08:24:17.548Z,1021.15
2023-02-09T08:25:17.544Z,1021.17
2023-02-09T08:26:17.544Z,1021.20
2023-02-09T08:27:17.493Z,1021.13
2023-02-09T08:28:17.582Z,1021.20
2023-02-09T08:29:17.480Z,1021.18
2023-02-09T08:30:17.528Z,1021.17
2023-02-09T08:31:17.656Z,1021.19
2023-02-09T08:32:17.549Z,1021.26
2023-02-09T08:33:17.448Z,1021.22
2023-02-09T08:34:17.452Z,1021.20
2023-02-09T08:35:18.452Z,1021.28
2023-02-09T08:36:17.452Z,1021.19
2023-02-09T08:37:17.420Z,1021.19
2023-02-09T08:38:17.381Z,1021.17
2023-02-09T08:39:18.416Z,1021.13
2023-02-09T08:40:17.370Z,1021.19
2023-02-09T08:41:17.361Z,1021.16
2023-02-09T08:42:17.357Z,1021.19
2023-02-09T08:43:18.352Z,1021.12
2023-02-09T08:44:17.363Z,1021.17
2023-02-09T08:45:17.388Z,1021.13
2023-02-09T08:46:17.582Z,1021.13
2023-02-09T08:47:17.340Z,1021.17
2023-02-09T08:48:17.285Z,1021.13
2023-02-09T08:49:17.285Z,1021.15
2023-02-09T08:50:18.268Z,1021.03
2023-02-09T08:51:18.270Z,1021.02
2023-02-09T08:52:17.249Z,1021.01
2023-02-09T08:53:17.225Z,1020.98
2023-02-09T08:54:17.236Z,1020.98
2023-02-09T08:55:17.209Z,1020.96
2023-02-09T08:56:17.242Z,1020.97
2023-02-09T08:57:17.206Z,1020.98
2023-02-09T08:58:17.166Z,1021.01
2023-02-09T08:59:19.760Z,1021.00
2023-02-09T09:00:17.165Z,1020.99
2023-02-09T09:01:17.254Z,1021.00
2023-02-09T09:02:17.142Z,1020.98
2023-02-09T09:03:17.153Z,1021.01
2023-02-09T09:04:17.148Z,1020.97
2023-02-09T09:05:17.133Z,1021.00
2023-02-09T09:06:17.118Z,1021.01
2023-02-09T09:07:17.125Z,1020.96
2023-02-09T09:08:17.129Z,1021.02
2023-02-09T09:09:17.067Z,1021.08
2023-02-09T09:10:18.048Z,1021.10
2023-02-09T09:11:18.058Z,1021.01
2023-02-09T09:12:17.060Z,1020.98
2023-02-09T09:13:17.021Z,1020.96
2023-02-09T09:14:17.032Z,1020.98
2023-02-09T09:15:17.005Z,1020.94
2023-02-09T09:16:17.088Z,1020.97
2023-02-09T09:17:17.020Z,1020.94
2023-02-09T09:18:16.975Z,1020.88
2023-02-09T09:19:17.969Z,1020.89
2023-02-09T09:20:16.944Z,1020.96
2023-02-09T09:21:16.956Z,1020.86
2023-02-09T09:22:17.005Z,1020.92
2023-02-09T09:23:16.961Z,1021.01
2023-02-09T09:24:16.917Z,1020.96
2023-02-09T09:25:16.879Z,1020.96
2023-02-09T09:26:16.945Z,1020.96
2023-02-09T09:27:17.897Z,1021.02
2023-02-09T09:28:16.981Z,1020.95
2023-02-09T09:29:16.874Z,1021.05
2023-02-09T09:30:17.823Z,1021.04
2023-02-09T09:31:16.922Z,1020.96
2023-02-09T09:32:17.956Z,1020.93
2023-02-09T09:33:16.876Z,1020.95
2023-02-09T09:34:16.854Z,1020.94
2023-02-09T09:35:16.806Z,1020.99
2023-02-09T09:36:16.781Z,1020.97
2023-02-09T09:37:16.745Z,1020.96
2023-02-09T09:38:16.760Z,1021.06
2023-02-09T09:39:16.769Z,1021.07
2023-02-09T09:40:16.775Z,1021.04
2023-02-09T09:41:16.731Z,1021.09
2023-02-09T09:42:17.709Z,1021.06
2023-02-09T09:43:17.703Z,1021.07
2023-02-09T09:44:16.690Z,1021.05
2023-02-09T09:45:16.705Z,1021.10
2023-02-09T09:46:16.703Z,1021.08
2023-02-09T09:47:16.654Z,1021.07
2023-02-09T09:48:17.667Z,1021.09
2023-02-09T09:49:17.639Z,1021.08
2023-02-09T09:50:16.647Z,1021.09
2023-02-09T09:51:16.628Z,1021.08
2023-02-09T09:52:16.636Z,1021.09
2023-02-09T09:53:16.632Z,1021.14
2023-02-09T09:54:16.604Z,1021.10
2023-02-09T09:55:17.573Z,1021.12
2023-02-09T09:56:16.634Z,1021.08
2023-02-09T09:57:16.574Z,1021.07
2023-02-09T09:58:16.536Z,1021.06
2023-02-09T09:59:16.526Z,1021.10
2023-02-09T10:00:16.508Z,1021.10
2023-02-09T10:01:16.646Z,1021.11
2023-02-09T10:02:16.487Z,1020.99
2023-02-09T10:03:16.473Z,1021.03
2023-02-09T10:04:16.513Z,1021.01
2023-02-09T10:05:17.453Z,1020.98
2023-02-09T10:06:16.475Z,1021.02
2023-02-09T10:07:19.122Z,1021.01
2023-02-09T10:08:16.476Z,1021.01
2023-02-09T10:09:16.450Z,1020.96
2023-02-09T10:10:17.386Z,1021.04
2023-02-09T10:11:16.415Z,1020.94
2023-02-09T10:12:16.370Z,1020.96
2023-02-09T10:13:16.376Z,1020.91
2023-02-09T10:14:16.375Z,1021.00
2023-02-09T10:15:16.383Z,1020.93
2023-02-09T10:16:16.345Z,1020.89
2023-02-09T10:17:17.378Z,1020.84
2023-02-09T10:18:16.351Z,1020.88
2023-02-09T10:19:16.360Z,1020.83
2023-02-09T10:20:17.286Z,1020.78
2023-02-09T10:21:16.316Z,1020.63
2023-02-09T10:22:17.302Z,1020.56
2023-02-09T10:23:16.276Z,1020.55
2023-02-09T10:24:16.267Z,1020.56
2023-02-09T10:25:16.244Z,1020.50
2023-02-09T10:26:16.241Z,1020.48
2023-02-09T10:27:16.249Z,1020.38
2023-02-09T10:28:16.227Z,1020.40
2023-02-09T10:29:16.215Z,1020.36
2023-02-09T10:30:16.186Z,1020.37
2023-02-09T10:31:16.339Z,1020.33
2023-02-09T10:32:16.212Z,1020.42
2023-02-09T10:33:16.162Z,1020.38
2023-02-09T10:34:16.136Z,1020.32
2023-02-09T10:35:16.136Z,1020.30
2023-02-09T10:36:16.123Z,1020.26
2023-02-09T10:37:16.117Z,1020.27
2023-02-09T10:38:17.139Z,1020.25
2023-02-09T10:39:16.115Z,1020.21
2023-02-09T10:40:16.084Z,1020.16
2023-02-09T10:41:16.056Z,1020.15
2023-02-09T10:42:16.052Z,1020.19
2023-02-09T10:43:16.066Z,1020.22
2023-02-09T10:44:17.076Z,1020.19
2023-02-09T10:45:16.054Z,1020.23
2023-02-09T10:46:16.097Z,1020.25
2023-02-09T10:47:16.033Z,1020.19
2023-02-09T10:48:16.004Z,1020.20
2023-02-09T10:49:15.988Z,1020.20
2023-02-09T10:50:15.973Z,1020.22
2023-02-09T10:51:15.979Z,1020.15
2023-02-09T10:52:15.969Z,1020.18
2023-02-09T10:53:15.966Z,1020.06
2023-02-09T10:54:15.936Z,1020.02
2023-02-09T10:55:15.933Z,1019.98
2023-02-09T10:56:15.933Z,1020.01
2023-02-09T10:57:15.896Z,1019.86
2023-02-09T10:58:15.920Z,1019.81
2023-02-09T10:59:15.886Z,1019.72
2023-02-09T11:00:15.848Z,1019.62
2023-02-09T11:01:15.897Z,1019.60
2023-02-09T11:02:16.834Z,1019.47
2023-02-09T11:03:15.825Z,1019.48
2023-02-09T11:04:15.949Z,1019.48
2023-02-09T11:05:16.812Z,1019.46
2023-02-09T11:06:15.792Z,1019.52
2023-02-09T11:07:15.803Z,1019.57
2023-02-09T11:08:15.821Z,1019.60
2023-02-09T11:09:15.801Z,1019.66
2023-02-09T11:10:15.789Z,1019.64
2023-02-09T11:11:15.750Z,1019.68
2023-02-09T11:12:15.726Z,1019.72
2023-02-09T11:13:15.716Z,1019.72
2023-02-09T11:14:15.748Z,1019.70
2023-02-09T11:15:15.704Z,1019.73
2023-02-09T11:16:15.734Z,1019.72
2023-02-09T11:17:15.723Z,1019.64
2023-02-09T11:18:15.676Z,1019.60
2023-02-09T11:19:15.669Z,1019.65
2023-02-09T11:20:15.689Z,1019.50
2023-02-09T11:21:15.649Z,1019.57
2023-02-09T11:22:15.646Z,1019.47
2023-02-09T11:23:15.610Z,1019.45
2023-02-09T11:24:15.653Z,1019.39
2023-02-09T11:25:15.633Z,1019.35
2023-02-09T11:26:15.656Z,1019.28
2023-02-09T11:27:15.613Z,1019.33
2023-02-09T11:28:15.619Z,1019.34
2023-02-09T11:29:15.558Z,1019.31
2023-02-09T11:30:16.565Z,1019.27
2023-02-09T11:31:15.587Z,1019.28
2023-02-09T11:32:15.540Z,1019.33
2023-02-09T11:33:15.549Z,1019.33
2023-02-09T11:34:15.514Z,1019.42
2023-02-09T11:35:15.476Z,1019.48
2023-02-09T11:36:15.502Z,1019.48
2023-02-09T11:37:16.213Z,1019.46
2023-02-09T11:38:15.472Z,1019.49
2023-02-09T11:39:15.470Z,1019.48
2023-02-09T11:40:16.573Z,1019.61
2023-02-09T11:41:15.419Z,1019.59
2023-02-09T11:42:15.450Z,1019.60
2023-02-09T11:43:15.401Z,1019.52
2023-02-09T11:44:15.390Z,1019.53
2023-02-09T11:45:15.401Z,1019.47
2023-02-09T11:46:15.514Z,1019.45
2023-02-09T11:47:16.371Z,1019.37
2023-02-09T11:48:15.342Z,1019.35
2023-02-09T11:49:15.337Z,1019.25
2023-02-09T11:50:15.439Z,1019.21
2023-02-09T11:51:15.326Z,1019.18
2023-02-09T11:52:15.333Z,1019.18
2023-02-09T11:53:15.297Z,1019.09
2023-02-09T11:54:16.405Z,1019.17
2023-02-09T11:55:15.301Z,1019.03
2023-02-09T11:56:15.262Z,1019.00
2023-02-09T11:57:15.286Z,1019.03
2023-02-09T11:58:15.243Z,1018.98
2023-02-09T11:59:15.221Z,1019.10
2023-02-09T12:00:15.388Z,1019.16
2023-02-09T12:01:16.442Z,1019.09
2023-02-09T12:02:16.294Z,1019.22
2023-02-09T12:03:15.250Z,1019.19
2023-02-09T12:04:15.200Z,1019.19
2023-02-09T12:05:15.150Z,1019.22